createdAt,value
2023-01-25T00:02:54.572Z,-0.10
2023-01-25T00:07:58.249Z,-0.10
2023-01-25T00:13:01.805Z,-0.10
2023-01-25T00:18:05.273Z,-0.20
2023-01-25T00:23:09.300Z,-0.10
2023-01-25T00:28:13.713Z,-0.20
2023-01-25T00:33:17.545Z,-0.20
2023-01-25T00:38:35.092Z,-0.10
2023-01-25T00:43:38.350Z,-0.10
2023-01-25T00:48:42.122Z,-0.10
2023-01-25T00:53:45.762Z,-0.10
2023-01-25T00:58:49.205Z,-0.20
2023-01-25T01:03:53.053Z,-0.20
2023-01-25T01:08:56.533Z,-0.20
2023-01-25T01:14:00.875Z,-0.20
2023-01-25T01:19:06.479Z,-0.20
2023-01-25T01:24:11.846Z,-0.10
2023-01-25T01:29:15.788Z,-0.20
2023-01-25T01:34:19.539Z,-0.20
2023-01-25T01:39:23.313Z,-0.20
2023-01-25T01:44:51.366Z,-0.20
2023-01-25T01:50:02.713Z,-0.20
2023-01-25T01:55:11.084Z,-0.20
2023-01-25T02:00:20.029Z,-0.20
2023-01-25T02:05:37.459Z,-0.30
2023-01-25T02:10:43.326Z,-0.30
2023-01-25T02:15:54.495Z,-0.30
2023-01-25T02:21:00.548Z,-0.30
2023-01-25T02:26:08.075Z,-0.40
2023-01-25T02:31:12.128Z,-0.40
2023-01-25T02:36:26.747Z,-0.50
2023-01-25T02:41:38.449Z,-0.50
2023-01-25T02:46:43.593Z,-0.50
2023-01-25T02:51:50.104Z,-0.50
2023-01-25T02:56:53.788Z,-0.50
2023-01-25T03:01:57.376Z,-0.40
2023-01-25T03:07:01.048Z,-0.50
2023-01-25T03:12:04.836Z,-0.50
2023-01-25T03:17:08.302Z,-0.50
2023-01-25T03:22:12.327Z,-0.50
2023-01-25T03:27:18.077Z,-0.50
2023-01-25T03:32:21.822Z,-0.50
2023-01-25T03:37:31.089Z,-0.50
2023-01-25T03:42:34.940Z,-0.40
2023-01-25T03:47:38.582Z,-0.40
2023-01-25T03:52:46.096Z,-0.40
2023-01-25T03:57:50.657Z,-0.40
2023-01-25T04:02:54.327Z,-0.40
2023-01-25T04:07:57.912Z,-0.50
2023-01-25T04:13:01.486Z,-0.60
2023-01-25T04:18:05.148Z,-0.60
2023-01-25T04:23:09.833Z,-0.60
2023-01-25T04:28:13.449Z,-0.60
2023-01-25T04:33:17.621Z,-0.60
2023-01-25T04:38:21.521Z,-0.60
2023-01-25T04:43:26.989Z,-0.60
2023-01-25T04:48:31.097Z,-0.60
2023-01-25T04:53:34.697Z,-0.60
2023-01-25T04:58:38.495Z,-0.60
2023-01-25T05:03:42.290Z,-0.60
2023-01-25T05:08:45.989Z,-0.60
2023-01-25T05:13:49.546Z,-0.70
2023-01-25T05:18:55.321Z,-0.70
2023-01-25T05:23:58.774Z,-0.60
2023-01-25T05:29:02.488Z,-0.60
2023-01-25T05:34:05.749Z,-0.60
2023-01-25T05:39:11.926Z,-0.60
2023-01-25T05:44:16.270Z,-0.60
2023-01-25T05:49:20.726Z,-0.60
2023-01-25T05:54:24.659Z,-0.60
2023-01-25T05:59:28.437Z,-0.60
2023-01-25T06:04:32.432Z,-0.50
2023-01-25T06:09:35.780Z,-0.60
2023-01-25T06:14:39.482Z,-0.60
2023-01-25T06:19:42.829Z,-0.60
2023-01-25T06:24:46.473Z,-0.50
2023-01-25T06:29:51.189Z,-0.60
2023-01-25T06:34:54.760Z,-0.60
2023-01-25T06:39:58.474Z,-0.60
2023-01-25T06:45:02.087Z,-0.60
2023-01-25T06:50:06.138Z,-0.60
2023-01-25T06:55:14.517Z,-0.60
2023-01-25T07:00:18.701Z,-0.60
2023-01-25T07:05:24.527Z,-0.60
2023-01-25T07:10:28.237Z,-0.50
2023-01-25T07:15:31.822Z,-0.60
2023-01-25T07:20:35.658Z,-0.70
2023-01-25T07:25:45.971Z,-0.70
2023-01-25T07:30:49.952Z,-0.60
2023-01-25T07:35:53.590Z,-0.60
2023-01-25T07:40:57.541Z,-0.60
2023-01-25T07:46:03.947Z,-0.60
2023-01-25T07:51:13.214Z,-0.60
2023-01-25T07:56:16.982Z,-0.50
2023-01-25T08:01:22.638Z,-0.50
2023-01-25T08:06:31.186Z,-0.40
2023-01-25T08:11:35.128Z,-0.40
2023-01-25T08:16:38.935Z,-0.40
2023-01-25T08:21:42.796Z,-0.40
2023-01-25T08:26:46.832Z,-0.40
2023-01-25T08:31:50.510Z,-0.40
2023-01-25T08:36:53.824Z,-0.40
2023-01-25T08:41:57.335Z,-0.40
2023-01-25T08:47:00.960Z,-0.40
2023-01-25T08:52:05.171Z,-0.30
2023-01-25T08:57:08.797Z,-0.30
2023-01-25T09:02:15.245Z,-0.20
2023-01-25T09:07:19.320Z,-0.30
2023-01-25T09:12:23.442Z,-0.30
2023-01-25T09:17:26.850Z,-0.30
2023-01-25T09:22:31.892Z,-0.30
2023-01-25T09:27:35.407Z,-0.10
2023-01-25T09:32:39.965Z,-0.10
2023-01-25T09:37:43.953Z,0.00
2023-01-25T09:43:00.663Z,-0.10
2023-01-25T09:48:23.526Z,-0.20
2023-01-25T09:53:34.605Z,-0.20
2023-01-25T09:58:46.899Z,-0.20
2023-01-25T10:04:03.167Z,-0.20
2023-01-25T10:09:17.279Z,-0.20
2023-01-25T10:14:22.447Z,-0.10
2023-01-25T10:19:31.999Z,-0.10
2023-01-25T10:25:02.896Z,-0.10
2023-01-25T10:30:37.170Z,-0.10
2023-01-25T10:35:48.298Z,-0.10
2023-01-25T10:41:13.028Z,-0.10
2023-01-25T10:46:27.400Z,-0.10
2023-01-25T10:51:37.997Z,0.00
2023-01-25T10:56:43.434Z,0.10
2023-01-25T11:01:47.404Z,0.00
2023-01-25T11:06:52.300Z,-0.10
2023-01-25T11:11:59.895Z,-0.10
2023-01-25T11:17:06.578Z,0.00
2023-01-25T11:22:19.422Z,0.00
2023-01-25T11:27:29.259Z,0.00
2023-01-25T11:32:33.646Z,-0.10
2023-01-25T11:37:52.469Z,-0.20
2023-01-25T11:43:11.097Z,-0.20
2023-01-25T11:48:47.848Z,-0.10
2023-01-25T11:54:07.919Z,0.00
2023-01-25T11:59:46.892Z,-0.10
2023-01-25T12:05:21.760Z,0.00
2023-01-25T12:10:52.928Z,0.00
2023-01-25T12:16:09.305Z,0.00
2023-01-25T12:21:26.360Z,0.00
2023-01-25T12:26:46.473Z,0.00
2023-01-25T12:32:41.059Z,0.10
2023-01-25T12:37:47.452Z,0.10
2023-01-25T12:42:59.983Z,0.10
2023-01-25T12:48:14.314Z,0.10
2023-01-25T12:53:26.638Z,0.10
2023-01-25T12:58:38.095Z,0.10
2023-01-25T13:04:29.756Z,0.10
2023-01-25T13:10:02.787Z,0.00
2023-01-25T13:15:40.191Z,0.00
2023-01-25T13:20:50.052Z,-0.10
2023-01-25T13:25:54.265Z,-0.10
2023-01-25T13:30:58.261Z,-0.10
2023-01-25T13:36:45.658Z,-0.10
2023-01-25T13:42:00.771Z,-0.10
2023-01-25T13:47:07.068Z,-0.10
2023-01-25T13:52:22.068Z,-0.10
2023-01-25T13:57:28.509Z,-0.10
2023-01-25T14:02:32.486Z,-0.10
2023-01-25T14:07:37.814Z,0.00
2023-01-25T14:12:44.206Z,0.00
2023-01-25T14:17:48.187Z,0.00
2023-01-25T14:22:52.339Z,0.00
2023-01-25T14:28:07.199Z,-0.10
2023-01-25T14:33:34.270Z,0.00
2023-01-25T14:38:40.390Z,-0.10
2023-01-25T14:43:55.626Z,-0.10
2023-01-25T14:49:14.301Z,-0.10
2023-01-25T14:54:22.180Z,-0.10
2023-01-25T14:59:37.165Z,-0.10
2023-01-25T15:04:40.614Z,-0.10
2023-01-25T15:10:22.041Z,0.00
2023-01-25T15:15:28.661Z,0.00
2023-01-25T15:20:38.153Z,0.00
2023-01-25T15:25:56.418Z,0.00
2023-01-25T15:31:00.621Z,0.00
2023-01-25T15:36:04.116Z,-0.10
2023-01-25T15:41:07.999Z,-0.10
2023-01-25T15:46:26.147Z,0.00
2023-01-25T15:51:35.607Z,-0.10
2023-01-25T15:56:43.572Z,-0.10
2023-01-25T16:01:48.541Z,-0.10
2023-01-25T16:06:55.813Z,-0.10
2023-01-25T16:12:02.160Z,-0.10
2023-01-25T16:17:06.087Z,-0.10
2023-01-25T16:22:11.686Z,-0.10
2023-01-25T16:27:21.179Z,0.00
2023-01-25T16:32:26.938Z,0.00
2023-01-25T16:37:32.093Z,0.00
2023-01-25T16:42:36.131Z,0.00
2023-01-25T16:47:41.296Z,0.00
2023-01-25T16:52:46.481Z,0.00
2023-01-25T16:57:52.912Z,-0.10
2023-01-25T17:03:00.044Z,-0.10
2023-01-25T17:08:05.148Z,-0.10
2023-01-25T17:13:10.921Z,-0.10
2023-01-25T17:18:16.890Z,-0.10
2023-01-25T17:23:23.069Z,-0.10
2023-01-25T17:28:28.450Z,-0.10
2023-01-25T17:33:36.123Z,-0.10
2023-01-25T17:38:46.049Z,-0.10
2023-01-25T17:43:54.575Z,-0.10
2023-01-25T17:49:00.371Z,-0.10
2023-01-25T17:54:07.098Z,-0.10
2023-01-25T17:59:15.413Z,-0.10
2023-01-25T18:04:24.423Z,-0.10
2023-01-25T18:09:33.701Z,-0.10
2023-01-25T18:14:40.249Z,-0.10
2023-01-25T18:19:48.317Z,-0.10
2023-01-25T18:24:54.904Z,-0.10
2023-01-25T18:30:07.209Z,-0.10
2023-01-25T18:35:17.186Z,-0.10
2023-01-25T18:40:22.847Z,-0.20
2023-01-25T18:45:31.106Z,-0.20
2023-01-25T18:50:46.720Z,-0.10
2023-01-25T18:56:21.753Z,-0.10
2023-01-25T19:01:32.752Z,-0.10
2023-01-25T19:06:39.409Z,-0.10
2023-01-25T19:11:51.745Z,0.00
2023-01-25T19:16:59.378Z,-0.10
2023-01-25T19:22:06.410Z,-0.10
2023-01-25T19:27:15.262Z,0.00
2023-01-25T19:32:26.790Z,0.00
2023-01-25T19:37:35.439Z,0.00
2023-01-25T19:42:42.701Z,0.00
2023-01-25T19:47:48.237Z,0.00
2023-01-25T19:52:59.103Z,-0.10
2023-01-25T19:58:08.511Z,-0.10
2023-01-25T20:03:16.852Z,0.00
2023-01-25T20:08:26.430Z,0.00
2023-01-25T20:13:32.773Z,0.10
2023-01-25T20:18:41.178Z,0.10
2023-01-25T20:23:50.427Z,0.10
2023-01-25T20:28:59.652Z,0.10
2023-01-25T20:34:31.169Z,0.20
2023-01-25T20:39:38.511Z,0.20
2023-01-25T20:44:48.109Z,0.20
2023-01-25T20:55:14.379Z,0.30
2023-01-25T21:00:20.202Z,0.30
2023-01-25T21:05:27.700Z,0.30
2023-01-25T21:10:33.489Z,0.40
2023-01-25T21:15:39.795Z,0.40
2023-01-25T21:20:48.789Z,0.40
2023-01-25T21:25:55.543Z,0.40
2023-01-25T21:31:01.178Z,0.40
2023-01-25T21:36:09.943Z,0.40
2023-01-25T21:41:22.829Z,0.50
2023-01-25T21:46:29.589Z,0.40
2023-01-25T21:51:40.670Z,0.40
2023-01-25T21:56:46.866Z,0.40
2023-01-25T22:01:51.697Z,0.40
2023-01-25T22:06:57.088Z,0.50
2023-01-25T22:12:02.264Z,0.50
2023-01-25T22:17:06.290Z,0.50
2023-01-25T22:22:10.037Z,0.50
2023-01-25T22:27:37.672Z,0.50
2023-01-25T22:32:41.438Z,0.50
2023-01-25T22:37:45.083Z,0.50
2023-01-25T22:42:48.604Z,0.50
2023-01-25T22:47:54.443Z,0.60
2023-01-25T22:52:58.507Z,0.60
2023-01-25T22:58:02.408Z,0.60
2023-01-25T23:03:06.206Z,0.60
2023-01-25T23:08:10.289Z,0.60
2023-01-25T23:13:13.759Z,0.50
2023-01-25T23:18:35.915Z,0.60
2023-01-25T23:23:40.036Z,0.50
2023-01-25T23:28:44.484Z,0.60
2023-01-25T23:33:53.360Z,0.60
2023-01-25T23:38:57.552Z,0.60
2023-01-25T23:44:01.974Z,0.60
2023-01-25T23:49:05.629Z,0.60
2023-01-25T23:54:09.345Z,0.60
2023-01-25T23:59:12.639Z,0.60
